Home   Weather   Norway   Hokksund   Past weeks
Flag for Norway

Past Weather in Hokksund, Norway — Yesterday and Last 2 Weeks

Currently: 57 °F. Overcast. (Weather station: Statfjord B, Norway). See more current weather

Past Weather in Hokksund — Graph

°F

Hokksund Temperature Yesterday

Maximum temperature yesterday: 57 °F (at 7:50 pm)
Minimum temperature yesterday: 50 °F (at 4:20 am)
Average temperature yesterday: 53 °F

High & Low Weather Summary for the Past Weeks

 TemperatureHumidityPressure
High72 °F (Jul 26, 6:50 pm)100% (Jul 19, 11:50 pm)30.24 "Hg (Jul 19, 11:50 pm)
Low50 °F (Jul 20, 7:20 am)55% (Aug 2, 3:20 pm)29.47 "Hg (Jul 29, 7:50 am)
Average56 °F86%29.88 "Hg
* Reported Jul 19 4:20 pm — Aug 3 4:20 pm, Hokksund. Weather by CustomWeather, © 2021

Note: Actual official high and low records may vary slightly from our data, if they occured in-between our weather recording intervals... More about our weather records

Hokksund Weather History for the Previous 24 Hours

Scroll right to see more
 ConditionsComfort  
Time TempWeatherWind HumidityBarometerVisibility
4:20 pm
Tue, Aug 3
59 °FOvercast.5 mph68%29.92 "HgN/A
3:50 pm57 °FOvercast.1 mph67%29.92 "HgN/A
3:20 pm57 °FPartly sunny.5 mph67%29.92 "HgN/A
2:50 pm57 °FPartly sunny.5 mph67%29.92 "HgN/A
2:20 pm57 °FOvercast.5 mph67%29.92 "HgN/A
1:50 pm55 °FOvercast.6 mph72%29.92 "HgN/A
1:20 pm57 °FOvercast.6 mph67%29.92 "HgN/A
12:50 pm57 °FOvercast.7 mph67%29.92 "HgN/A
12:20 pm57 °FPartly sunny.5 mph67%29.92 "HgN/A
11:50 am57 °FCool.3 mph67%29.89 "HgN/A
11:20 am57 °FPartly sunny.5 mph67%29.89 "HgN/A
10:50 am55 °FPassing clouds.7 mph72%29.89 "HgN/A
10:20 am55 °FScattered clouds.8 mph72%29.89 "HgN/A
9:50 am54 °FOvercast.8 mph77%29.92 "HgN/A
9:20 am54 °FOvercast.7 mph77%29.92 "HgN/A
8:50 am54 °FOvercast.6 mph82%29.89 "HgN/A
8:20 am55 °FOvercast.5 mph72%29.89 "HgN/A
7:50 am54 °FOvercast.5 mph72%29.89 "HgN/A
7:20 am54 °FOvercast.3 mph67%29.89 "HgN/A
6:50 am54 °FOvercast.5 mph67%29.89 "HgN/A
6:20 am54 °FOvercast.6 mph67%29.89 "HgN/A
5:50 am54 °FOvercast.5 mph67%29.89 "HgN/A
5:20 am54 °FOvercast.5 mph67%29.89 "HgN/A
4:50 am54 °FOvercast.5 mph67%29.92 "HgN/A
4:20 am55 °FOvercast.6 mph63%29.89 "HgN/A
3:50 am55 °FOvercast.7 mph63%29.89 "HgN/A
3:20 am54 °FOvercast.7 mph67%29.92 "HgN/A
2:50 am54 °FPassing clouds.7 mph67%29.92 "HgN/A
1:20 am54 °FPassing clouds.10 mph67%29.89 "HgN/A
12:50 am54 °FOvercast.12 mph67%29.89 "HgN/A
12:20 am54 °FPassing clouds.12 mph67%29.89 "HgN/A
11:50 pm
Mon, Aug 2
54 °FPassing clouds.12 mph72%29.92 "HgN/A
11:20 pm54 °FOvercast.9 mph67%29.92 "HgN/A
10:50 pm54 °FPassing clouds.10 mph63%29.89 "HgN/A
10:20 pm54 °FOvercast.13 mph67%29.89 "HgN/A
9:50 pm54 °FOvercast.13 mph67%29.89 "HgN/A
9:20 pm54 °FPartly sunny.15 mph67%29.89 "HgN/A
8:50 pm54 °FPartly sunny.16 mph72%29.89 "HgN/A
8:20 pm54 °FPartly sunny.13 mph72%29.89 "HgN/A
7:50 pm57 °FOvercast.13 mph59%29.89 "HgN/A
7:20 pm54 °FOvercast.8 mph67%29.89 "HgN/A
6:50 pm55 °FPartly sunny.9 mph59%29.89 "HgN/A
6:20 pm55 °FOvercast.12 mph59%29.89 "HgN/A
5:50 pm54 °FPartly sunny.12 mph63%29.89 "HgN/A
5:20 pm55 °FPartly sunny.12 mph59%29.89 "HgN/A
Weather by CustomWeather, © 2021

See weather overview